createdAt,value
2019-02-21T00:00:51.896Z,2.70
2019-02-21T00:03:41.707Z,2.70
2019-02-21T00:06:12.408Z,2.70
2019-02-21T00:08:43.194Z,2.60
2019-02-21T00:11:13.922Z,2.60
2019-02-21T00:13:44.664Z,2.60
2019-02-21T00:16:15.397Z,2.50
2019-02-21T00:18:46.055Z,2.50
2019-02-21T00:21:16.685Z,2.60
2019-02-21T00:23:47.660Z,2.50
2019-02-21T00:26:18.218Z,2.40
2019-02-21T00:28:48.938Z,2.40
2019-02-21T00:31:19.956Z,2.40
2019-02-21T00:33:50.694Z,2.40
2019-02-21T00:36:22.298Z,2.30
2019-02-21T00:38:53.022Z,2.20
2019-02-21T00:41:23.632Z,2.20
2019-02-21T00:43:54.374Z,2.20
2019-02-21T00:46:24.984Z,2.10
2019-02-21T00:48:55.565Z,2.10
2019-02-21T00:51:26.113Z,2.00
2019-02-21T00:53:56.866Z,2.00
2019-02-21T00:56:27.581Z,2.00
2019-02-21T00:58:58.315Z,1.90
2019-02-21T01:01:28.950Z,2.00
2019-02-21T01:03:59.726Z,1.90
2019-02-21T01:13:04.748Z,1.80
2019-02-21T01:15:35.432Z,1.70
2019-02-21T01:18:06.192Z,1.60
2019-02-21T01:20:36.958Z,1.70
2019-02-21T01:23:07.725Z,1.70
2019-02-21T01:25:38.390Z,1.80
2019-02-21T01:28:09.049Z,1.70
2019-02-21T01:30:39.789Z,1.60
2019-02-21T01:33:10.494Z,1.50
2019-02-21T01:35:41.169Z,1.50
2019-02-21T01:38:11.814Z,1.50
2019-02-21T01:40:42.481Z,1.60
2019-02-21T01:43:13.139Z,1.70
2019-02-21T01:45:43.897Z,1.70
2019-02-21T01:48:14.686Z,1.70
2019-02-21T01:50:45.346Z,1.60
2019-02-21T01:53:16.085Z,1.70
2019-02-21T01:55:46.764Z,1.70
2019-02-21T01:58:17.485Z,1.70
2019-02-21T02:00:48.225Z,1.70
2019-02-21T02:03:18.949Z,1.70
2019-02-21T02:05:49.701Z,1.70
2019-02-21T02:08:20.347Z,1.70
2019-02-21T02:10:52.181Z,1.70
2019-02-21T02:13:24.863Z,1.60
2019-02-21T02:15:55.141Z,1.60
2019-02-21T02:18:25.725Z,1.50
2019-02-21T02:20:56.389Z,1.60
2019-02-21T02:23:27.058Z,1.60
2019-02-21T02:25:57.702Z,1.60
2019-02-21T02:28:28.317Z,1.60
2019-02-21T02:30:58.908Z,1.60
2019-02-21T02:33:29.521Z,1.60
2019-02-21T02:36:00.163Z,1.50
2019-02-21T02:38:30.813Z,1.50
2019-02-21T02:41:01.455Z,1.50
2019-02-21T02:43:32.171Z,1.40
2019-02-21T02:46:02.792Z,1.40
2019-02-21T02:48:33.422Z,1.30
2019-02-21T02:51:04.053Z,1.30
2019-02-21T02:53:34.683Z,1.30
2019-02-21T02:56:05.369Z,1.20
2019-02-21T02:58:35.929Z,1.20
2019-02-21T03:01:06.582Z,1.20
2019-02-21T03:03:37.134Z,1.20
2019-02-21T03:06:07.786Z,1.20
2019-02-21T03:08:38.397Z,1.20
2019-02-21T03:11:09.042Z,1.10
2019-02-21T03:13:39.822Z,1.10
2019-02-21T03:16:10.482Z,1.10
2019-02-21T03:18:41.194Z,1.10
2019-02-21T03:21:11.846Z,1.10
2019-02-21T03:23:42.551Z,1.00
2019-02-21T03:26:13.111Z,1.10
2019-02-21T03:28:43.733Z,1.10
2019-02-21T03:31:14.452Z,1.20
2019-02-21T03:33:45.093Z,1.20
2019-02-21T03:36:15.794Z,1.20
2019-02-21T03:38:46.826Z,1.30
2019-02-21T03:41:17.461Z,1.30
2019-02-21T03:43:48.085Z,1.30
2019-02-21T03:46:18.914Z,1.40
2019-02-21T03:48:49.534Z,1.40
2019-02-21T03:51:20.246Z,1.40
2019-02-21T03:53:50.792Z,1.40
2019-02-21T03:56:21.422Z,1.40
2019-02-21T03:58:53.144Z,1.40
2019-02-21T04:01:23.861Z,1.40
2019-02-21T04:03:54.493Z,1.40
2019-02-21T04:06:25.163Z,1.30
2019-02-21T04:08:55.760Z,1.30
2019-02-21T04:11:27.541Z,1.20
2019-02-21T04:13:58.246Z,1.20
2019-02-21T04:16:28.966Z,1.10
2019-02-21T04:18:59.675Z,1.10
2019-02-21T04:21:30.341Z,1.10
2019-02-21T04:24:00.976Z,1.10
2019-02-21T04:26:31.714Z,1.10
2019-02-21T04:29:02.355Z,1.10
2019-02-21T04:31:33.047Z,1.10
2019-02-21T04:34:03.806Z,1.00
2019-02-21T04:36:34.473Z,1.00
2019-02-21T04:39:05.759Z,1.00
2019-02-21T04:41:36.753Z,1.10
2019-02-21T04:44:07.385Z,1.30
2019-02-21T04:46:38.059Z,1.40
2019-02-21T04:49:08.680Z,1.40
2019-02-21T04:51:39.268Z,1.40
2019-02-21T04:54:09.928Z,1.30
2019-02-21T04:56:40.675Z,1.30
2019-02-21T04:59:11.319Z,1.30
2019-02-21T05:01:41.953Z,1.30
2019-02-21T05:04:12.702Z,1.30
2019-02-21T05:06:43.336Z,1.40
2019-02-21T05:09:13.923Z,1.40
2019-02-21T05:11:44.693Z,1.50
2019-02-21T05:14:15.451Z,1.50
2019-02-21T05:16:46.181Z,1.40
2019-02-21T05:19:16.833Z,1.40
2019-02-21T05:21:48.445Z,1.50
2019-02-21T05:24:19.192Z,1.50
2019-02-21T05:26:56.884Z,1.50
2019-02-21T05:29:27.540Z,1.50
2019-02-21T05:32:08.698Z,1.60
2019-02-21T05:34:44.132Z,1.60
2019-02-21T05:37:42.973Z,1.60
2019-02-21T05:40:50.771Z,1.70
2019-02-21T05:43:26.803Z,1.70
2019-02-21T05:46:14.317Z,1.70
2019-02-21T05:48:57.504Z,1.80
2019-02-21T05:51:51.722Z,1.80
2019-02-21T05:54:43.896Z,1.70
2019-02-21T05:57:42.860Z,1.70
2019-02-21T06:00:36.889Z,1.80
2019-02-21T06:03:30.014Z,1.70
2019-02-21T06:06:13.214Z,1.70
2019-02-21T06:09:11.853Z,1.60
2019-02-21T06:12:13.601Z,1.60
2019-02-21T06:15:12.188Z,1.50
2019-02-21T06:18:01.801Z,1.50
2019-02-21T06:20:54.245Z,1.50
2019-02-21T06:23:39.398Z,1.50
2019-02-21T06:26:28.534Z,1.50
2019-02-21T06:29:12.543Z,1.60
2019-02-21T06:31:43.229Z,1.60
2019-02-21T06:34:13.823Z,1.70
2019-02-21T06:36:44.446Z,1.70
2019-02-21T06:39:15.043Z,1.70
2019-02-21T06:41:45.674Z,1.70
2019-02-21T06:44:16.312Z,1.80
2019-02-21T06:46:46.919Z,1.80
2019-02-21T06:49:17.572Z,1.90
2019-02-21T06:51:49.275Z,1.90
2019-02-21T06:54:22.421Z,2.00
2019-02-21T06:56:52.273Z,2.00
2019-02-21T06:59:23.727Z,2.00
2019-02-21T07:01:54.464Z,2.00
2019-02-21T07:04:26.092Z,2.00
2019-02-21T07:06:56.974Z,2.10
2019-02-21T07:09:27.714Z,2.10
2019-02-21T07:11:58.449Z,2.20
2019-02-21T07:14:29.062Z,2.20
2019-02-21T07:16:59.682Z,2.20
2019-02-21T07:19:30.336Z,2.30
2019-02-21T07:22:00.890Z,2.30
2019-02-21T07:24:31.604Z,2.40
2019-02-21T07:27:02.209Z,2.40
2019-02-21T07:29:32.853Z,2.50
2019-02-21T07:32:03.566Z,2.60
2019-02-21T07:34:34.219Z,2.60
2019-02-21T07:37:04.853Z,2.70
2019-02-21T07:39:36.602Z,2.80
2019-02-21T07:42:07.354Z,2.90
2019-02-21T07:44:38.001Z,3.00
2019-02-21T07:47:08.550Z,3.00
2019-02-21T07:49:39.208Z,3.00
2019-02-21T07:52:09.836Z,3.20
2019-02-21T07:54:40.506Z,3.20
2019-02-21T07:57:11.212Z,3.30
2019-02-21T07:59:41.879Z,3.40
2019-02-21T08:02:12.508Z,3.60
2019-02-21T08:04:43.097Z,3.60
2019-02-21T08:07:13.720Z,3.80
2019-02-21T08:09:44.385Z,4.20
2019-02-21T08:12:15.123Z,4.50
2019-02-21T08:14:45.742Z,5.00
2019-02-21T08:17:16.471Z,5.50
2019-02-21T08:19:47.033Z,6.30
2019-02-21T08:22:17.665Z,7.00
2019-02-21T08:24:48.229Z,6.90
2019-02-21T08:27:18.877Z,6.60
2019-02-21T08:29:49.436Z,6.50
2019-02-21T08:32:23.471Z,6.40
2019-02-21T08:34:54.244Z,6.40
2019-02-21T08:37:24.906Z,6.40
2019-02-21T08:39:55.524Z,6.40
2019-02-21T08:42:26.099Z,6.60
2019-02-21T08:44:56.803Z,7.50
2019-02-21T08:47:27.466Z,7.70
2019-02-21T08:49:59.854Z,7.70
2019-02-21T08:52:30.558Z,7.80
2019-02-21T08:55:01.113Z,8.70
2019-02-21T08:57:32.749Z,9.70
2019-02-21T09:00:03.480Z,9.60
2019-02-21T09:07:35.767Z,10.30
2019-02-21T09:15:07.628Z,11.30
2019-02-21T09:17:38.411Z,11.50
2019-02-21T09:20:09.870Z,11.40
2019-02-21T09:25:12.001Z,11.30
2019-02-21T09:27:42.654Z,10.90
2019-02-21T09:30:17.793Z,11.00
2019-02-21T09:32:48.533Z,10.90
2019-02-21T09:47:49.057Z,10.70
2019-02-21T09:50:19.765Z,10.90
2019-02-21T09:52:50.592Z,11.30
2019-02-21T09:57:51.219Z,11.90
2019-02-21T10:00:22.039Z,12.40
2019-02-21T10:02:56.354Z,13.20
2019-02-21T10:05:25.185Z,13.90
2019-02-21T10:10:25.832Z,14.60
2019-02-21T10:12:56.589Z,14.90
2019-02-21T10:15:27.469Z,14.90
2019-02-21T10:17:58.203Z,15.50
2019-02-21T10:20:28.926Z,15.30
2019-02-21T10:22:59.669Z,15.70
2019-02-21T10:25:30.354Z,15.90
2019-02-21T10:28:01.019Z,15.80
2019-02-21T10:30:31.776Z,16.40
2019-02-21T10:43:03.602Z,16.50
2019-02-21T10:45:34.269Z,17.00
2019-02-21T10:48:05.004Z,16.00
2019-02-21T10:58:05.521Z,16.00
2019-02-21T11:00:36.234Z,15.90
2019-02-21T11:13:06.591Z,15.20
2019-02-21T11:20:38.327Z,14.90
2019-02-21T11:23:08.985Z,14.80
2019-02-21T11:40:39.076Z,17.90
2019-02-21T12:00:40.162Z,16.60
2019-02-21T12:03:10.828Z,16.20
2019-02-21T12:05:41.466Z,15.90
2019-02-21T12:18:11.688Z,15.30
2019-02-21T12:25:41.908Z,17.90
2019-02-21T12:33:12.405Z,17.80
2019-02-21T12:48:13.700Z,16.20
2019-02-21T12:50:44.729Z,16.10
2019-02-21T12:53:15.498Z,16.70
2019-02-21T12:55:46.159Z,16.90
2019-02-21T12:58:16.867Z,16.60
2019-02-21T13:00:47.598Z,16.40
2019-02-21T13:03:18.314Z,16.20
2019-02-21T13:05:49.034Z,16.70
2019-02-21T13:08:19.758Z,16.30
2019-02-21T13:10:50.373Z,16.20
2019-02-21T13:13:21.003Z,16.50
2019-02-21T13:20:51.526Z,15.70
2019-02-21T13:23:22.174Z,15.70
2019-02-21T13:25:52.923Z,15.70
2019-02-21T13:30:53.560Z,15.60
2019-02-21T13:33:25.264Z,15.60
2019-02-21T13:40:55.881Z,15.90
2019-02-21T13:43:26.438Z,15.80
2019-02-21T13:45:57.109Z,15.80
2019-02-21T13:48:29.845Z,15.70
2019-02-21T14:06:03.572Z,14.90
2019-02-21T14:13:32.252Z,14.70
2019-02-21T14:23:32.514Z,14.30
2019-02-21T14:36:02.837Z,14.30
2019-02-21T15:01:04.331Z,14.10
2019-02-21T15:03:35.042Z,14.10
2019-02-21T15:08:35.636Z,14.10
2019-02-21T15:11:06.366Z,14.00
2019-02-21T15:13:37.057Z,14.00
2019-02-21T15:16:07.872Z,13.80
2019-02-21T15:18:38.633Z,13.80
2019-02-21T15:21:09.293Z,13.70
2019-02-21T15:28:39.958Z,13.60
2019-02-21T15:41:10.404Z,13.70
2019-02-21T15:43:41.114Z,13.70
2019-02-21T15:46:11.810Z,13.60
2019-02-21T15:51:14.287Z,13.40
2019-02-21T16:01:15.030Z,13.00
2019-02-21T16:03:45.761Z,12.90
2019-02-21T16:06:16.606Z,12.80
2019-02-21T16:08:48.162Z,12.70
2019-02-21T16:11:18.913Z,12.70
2019-02-21T16:16:20.949Z,12.60
2019-02-21T16:18:51.593Z,12.50
2019-02-21T16:21:22.262Z,12.50
2019-02-21T16:23:52.957Z,12.50
2019-02-21T16:28:54.448Z,12.20
2019-02-21T16:31:24.992Z,12.10
2019-02-21T16:33:55.568Z,12.00
2019-02-21T16:41:35.823Z,11.50
2019-02-21T16:43:58.352Z,11.40
2019-02-21T16:46:28.925Z,11.30
2019-02-21T16:49:00.646Z,11.20
2019-02-21T16:51:31.363Z,11.10
2019-02-21T16:54:02.028Z,11.00
2019-02-21T16:56:32.656Z,10.80
2019-02-21T16:59:03.251Z,10.80
2019-02-21T17:01:33.898Z,10.60
2019-02-21T17:11:37.738Z,10.50
2019-02-21T17:14:08.380Z,10.50
2019-02-21T17:16:38.951Z,10.20
2019-02-21T17:19:09.589Z,10.00
2019-02-21T17:21:40.213Z,9.90
2019-02-21T17:26:40.785Z,9.70
2019-02-21T17:29:11.352Z,9.60
2019-02-21T17:31:41.986Z,9.70
2019-02-21T17:34:12.549Z,9.60
2019-02-21T17:36:43.181Z,9.50
2019-02-21T17:39:13.826Z,9.40
2019-02-21T17:41:44.513Z,9.30
2019-02-21T17:44:15.069Z,9.20
2019-02-21T17:49:15.728Z,9.20
2019-02-21T17:51:46.470Z,9.20
2019-02-21T17:54:17.045Z,9.00
2019-02-21T17:56:47.737Z,8.90
2019-02-21T17:59:18.465Z,8.90
2019-02-21T18:01:49.277Z,8.90
2019-02-21T18:09:19.753Z,8.80
2019-02-21T18:21:49.922Z,8.80
2019-02-21T18:26:50.674Z,8.80
2019-02-21T18:29:22.499Z,8.90
2019-02-21T18:34:23.133Z,8.90
2019-02-21T18:36:53.862Z,8.80
2019-02-21T18:39:24.601Z,8.70
2019-02-21T18:41:55.293Z,8.60
2019-02-21T18:44:26.979Z,8.60
2019-02-21T18:46:57.676Z,8.60
2019-02-21T18:49:28.480Z,8.60
2019-02-21T18:54:29.062Z,8.60
2019-02-21T18:56:59.834Z,8.50
2019-02-21T18:59:31.885Z,8.50
2019-02-21T19:04:32.704Z,8.50
2019-02-21T19:07:03.395Z,8.50
2019-02-21T19:09:34.118Z,8.40
2019-02-21T19:12:04.994Z,8.50
2019-02-21T19:14:35.746Z,8.40
2019-02-21T19:17:06.566Z,8.50
2019-02-21T19:19:37.354Z,8.50
2019-02-21T19:22:08.130Z,8.50
2019-02-21T19:24:38.824Z,8.40
2019-02-21T19:29:39.517Z,8.30
2019-02-21T19:37:10.966Z,8.40
2019-02-21T19:47:12.217Z,8.50
2019-02-21T19:49:42.969Z,8.50
2019-02-21T19:52:13.708Z,8.50
2019-02-21T19:54:45.390Z,8.50
2019-02-21T19:59:46.140Z,8.40
2019-02-21T20:02:17.012Z,8.50
2019-02-21T20:04:47.765Z,8.50
2019-02-21T20:09:48.583Z,8.40
2019-02-21T20:12:19.392Z,8.30
2019-02-21T20:17:20.182Z,8.30
2019-02-21T20:19:51.000Z,8.20
2019-02-21T20:22:21.690Z,8.20
2019-02-21T20:24:52.378Z,8.20
2019-02-21T20:37:23.026Z,8.00
2019-02-21T20:39:55.105Z,7.90
2019-02-21T20:42:25.977Z,7.80
2019-02-21T20:44:56.661Z,7.80
2019-02-21T20:47:27.420Z,7.70
2019-02-21T20:49:59.229Z,7.70
2019-02-21T20:52:30.102Z,7.70
2019-02-21T20:55:08.782Z,7.80
2019-02-21T21:00:11.353Z,7.80
2019-02-21T21:02:42.114Z,7.70
2019-02-21T21:05:12.971Z,7.80
2019-02-21T21:07:43.754Z,7.80
2019-02-21T21:10:14.827Z,7.80
2019-02-21T21:12:45.608Z,7.80
2019-02-21T21:15:16.340Z,7.90
2019-02-21T21:17:46.976Z,7.90
2019-02-21T21:20:17.726Z,7.80
2019-02-21T21:22:48.383Z,7.80
2019-02-21T21:25:19.095Z,7.80
2019-02-21T21:27:49.853Z,7.80
2019-02-21T21:32:50.477Z,7.90
2019-02-21T21:35:21.193Z,7.90
2019-02-21T21:37:51.860Z,7.80
2019-02-21T21:40:22.497Z,7.80
2019-02-21T21:42:53.164Z,7.80
2019-02-21T21:45:23.905Z,7.80
2019-02-21T21:47:57.230Z,7.70
2019-02-21T21:50:26.914Z,7.70
2019-02-21T21:52:57.657Z,7.80
2019-02-21T21:55:28.300Z,7.80
2019-02-21T21:57:59.058Z,7.80
2019-02-21T22:00:29.773Z,7.80
2019-02-21T22:03:00.430Z,7.80
2019-02-21T22:08:00.993Z,7.80
2019-02-21T22:13:01.619Z,7.80
2019-02-21T22:15:32.363Z,7.80
2019-02-21T22:18:03.129Z,7.80
2019-02-21T22:20:34.753Z,7.80
2019-02-21T22:30:38.106Z,8.00
2019-02-21T22:33:08.846Z,7.90
2019-02-21T22:35:39.591Z,7.90
2019-02-21T22:38:10.345Z,7.90
2019-02-21T22:40:41.109Z,7.90
2019-02-21T22:43:11.789Z,7.90
2019-02-21T22:45:42.402Z,7.90
2019-02-21T22:48:13.121Z,7.90
2019-02-21T22:53:13.653Z,7.90
2019-02-21T22:55:44.285Z,7.90
2019-02-21T22:58:15.012Z,7.90
2019-02-21T23:01:16.773Z,7.90
2019-02-21T23:03:50.419Z,7.90
2019-02-21T23:06:32.127Z,7.90
2019-02-21T23:09:02.846Z,7.90
2019-02-21T23:11:35.269Z,7.90
2019-02-21T23:14:05.925Z,7.90
2019-02-21T23:16:36.497Z,7.90
2019-02-21T23:19:07.167Z,7.90
2019-02-21T23:21:37.800Z,8.00
2019-02-21T23:26:38.381Z,7.90
2019-02-21T23:29:10.050Z,7.90
2019-02-21T23:31:40.745Z,7.90
2019-02-21T23:34:17.617Z,7.80
2019-02-21T23:36:48.175Z,7.80
2019-02-21T23:39:18.758Z,8.00
2019-02-21T23:41:49.335Z,8.00
2019-02-21T23:44:19.923Z,8.00
2019-02-21T23:46:50.658Z,8.00
2019-02-21T23:49:21.289Z,8.00
2019-02-21T23:51:51.994Z,8.10
2019-02-21T23:54:22.645Z,8.10
2019-02-21T23:56:53.269Z,8.10
2019-02-21T23:59:23.924Z,8.00
